sensor_id;sensor_type;location;lat;lon;timestamp;P1;durP1;ratioP1;P2;durP2;ratioP2
20727;SDS011;10525;50.154;8.198;2023-02-18T00:01:28;1.42;;;1.42;;
20727;SDS011;10525;50.154;8.198;2023-02-18T00:03:56;1.63;;;1.63;;
20727;SDS011;10525;50.154;8.198;2023-02-18T00:06:24;1.80;;;1.80;;
20727;SDS011;10525;50.154;8.198;2023-02-18T00:08:52;2.03;;;1.80;;
20727;SDS011;10525;50.154;8.198;2023-02-18T00:11:21;2.30;;;2.08;;
20727;SDS011;10525;50.154;8.198;2023-02-18T00:13:48;2.08;;;2.03;;
20727;SDS011;10525;50.154;8.198;2023-02-18T00:16:17;1.90;;;1.80;;
20727;SDS011;10525;50.154;8.198;2023-02-18T00:18:44;2.03;;;1.92;;
20727;SDS011;10525;50.154;8.198;2023-02-18T00:21:11;2.88;;;2.53;;
20727;SDS011;10525;50.154;8.198;2023-02-18T00:23:38;2.65;;;2.03;;
20727;SDS011;10525;50.154;8.198;2023-02-18T00:26:05;2.70;;;2.60;;
20727;SDS011;10525;50.154;8.198;2023-02-18T00:28:34;2.55;;;2.42;;
20727;SDS011;10525;50.154;8.198;2023-02-18T00:31:04;2.30;;;2.20;;
20727;SDS011;10525;50.154;8.198;2023-02-18T00:33:33;4.25;;;2.25;;
20727;SDS011;10525;50.154;8.198;2023-02-18T00:36:00;2.10;;;2.10;;
20727;SDS011;10525;50.154;8.198;2023-02-18T00:38:28;2.25;;;2.15;;
20727;SDS011;10525;50.154;8.198;2023-02-18T00:40:54;2.20;;;2.10;;
20727;SDS011;10525;50.154;8.198;2023-02-18T00:43:21;2.40;;;2.30;;
20727;SDS011;10525;50.154;8.198;2023-02-18T00:45:48;1.90;;;1.90;;
20727;SDS011;10525;50.154;8.198;2023-02-18T00:48:14;2.40;;;2.30;;
20727;SDS011;10525;50.154;8.198;2023-02-18T00:50:42;1.92;;;1.83;;
20727;SDS011;10525;50.154;8.198;2023-02-18T00:53:09;2.00;;;1.95;;
20727;SDS011;10525;50.154;8.198;2023-02-18T00:55:37;4.13;;;2.00;;
20727;SDS011;10525;50.154;8.198;2023-02-18T00:58:04;1.90;;;1.90;;
20727;SDS011;10525;50.154;8.198;2023-02-18T01:00:31;4.20;;;2.00;;
20727;SDS011;10525;50.154;8.198;2023-02-18T01:02:57;2.20;;;2.10;;
20727;SDS011;10525;50.154;8.198;2023-02-18T01:05:24;2.05;;;2.05;;
20727;SDS011;10525;50.154;8.198;2023-02-18T01:07:52;1.75;;;1.70;;
20727;SDS011;10525;50.154;8.198;2023-02-18T01:10:19;2.15;;;2.05;;
20727;SDS011;10525;50.154;8.198;2023-02-18T01:12:46;3.55;;;3.13;;
20727;SDS011;10525;50.154;8.198;2023-02-18T01:15:13;2.67;;;2.10;;
20727;SDS011;10525;50.154;8.198;2023-02-18T01:17:40;2.47;;;2.28;;
20727;SDS011;10525;50.154;8.198;2023-02-18T01:20:07;3.30;;;2.40;;
20727;SDS011;10525;50.154;8.198;2023-02-18T01:22:35;2.25;;;2.10;;
20727;SDS011;10525;50.154;8.198;2023-02-18T01:25:04;2.25;;;2.08;;
20727;SDS011;10525;50.154;8.198;2023-02-18T01:27:31;2.38;;;2.20;;
20727;SDS011;10525;50.154;8.198;2023-02-18T01:29:58;2.85;;;2.20;;
20727;SDS011;10525;50.154;8.198;2023-02-18T01:32:25;2.33;;;2.00;;
20727;SDS011;10525;50.154;8.198;2023-02-18T01:34:52;2.35;;;1.90;;
20727;SDS011;10525;50.154;8.198;2023-02-18T01:37:18;3.22;;;2.15;;
20727;SDS011;10525;50.154;8.198;2023-02-18T01:39:45;2.15;;;2.03;;
20727;SDS011;10525;50.154;8.198;2023-02-18T01:42:17;1.83;;;1.83;;
20727;SDS011;10525;50.154;8.198;2023-02-18T01:44:45;1.70;;;1.70;;
20727;SDS011;10525;50.154;8.198;2023-02-18T01:47:13;1.25;;;1.25;;
20727;SDS011;10525;50.154;8.198;2023-02-18T01:49:40;1.83;;;1.83;;
20727;SDS011;10525;50.154;8.198;2023-02-18T01:52:09;1.95;;;1.85;;
20727;SDS011;10525;50.154;8.198;2023-02-18T01:54:40;2.25;;;2.10;;
20727;SDS011;10525;50.154;8.198;2023-02-18T01:57:09;3.67;;;1.98;;
20727;SDS011;10525;50.154;8.198;2023-02-18T01:59:42;1.92;;;1.80;;
20727;SDS011;10525;50.154;8.198;2023-02-18T02:02:11;4.22;;;1.48;;
20727;SDS011;10525;50.154;8.198;2023-02-18T02:04:44;1.80;;;1.70;;
20727;SDS011;10525;50.154;8.198;2023-02-18T02:07:11;2.05;;;2.00;;
20727;SDS011;10525;50.154;8.198;2023-02-18T02:09:39;1.70;;;1.70;;
20727;SDS011;10525;50.154;8.198;2023-02-18T02:12:15;4.78;;;1.70;;
20727;SDS011;10525;50.154;8.198;2023-02-18T02:15:07;1.65;;;1.60;;
20727;SDS011;10525;50.154;8.198;2023-02-18T02:17:57;1.60;;;1.60;;
20727;SDS011;10525;50.154;8.198;2023-02-18T02:20:47;1.80;;;1.70;;
20727;SDS011;10525;50.154;8.198;2023-02-18T02:23:49;1.40;;;1.40;;
20727;SDS011;10525;50.154;8.198;2023-02-18T02:26:45;1.30;;;1.30;;
20727;SDS011;10525;50.154;8.198;2023-02-18T02:32:44;1.50;;;1.50;;
20727;SDS011;10525;50.154;8.198;2023-02-18T02:35:29;1.40;;;1.30;;
20727;SDS011;10525;50.154;8.198;2023-02-18T02:38:03;1.50;;;1.50;;
20727;SDS011;10525;50.154;8.198;2023-02-18T02:40:34;1.30;;;1.30;;
20727;SDS011;10525;50.154;8.198;2023-02-18T02:43:05;1.30;;;1.30;;
20727;SDS011;10525;50.154;8.198;2023-02-18T02:45:40;1.40;;;1.40;;
20727;SDS011;10525;50.154;8.198;2023-02-18T02:48:15;1.85;;;1.15;;
20727;SDS011;10525;50.154;8.198;2023-02-18T02:50:51;1.20;;;1.20;;
20727;SDS011;10525;50.154;8.198;2023-02-18T02:53:21;2.15;;;1.30;;
20727;SDS011;10525;50.154;8.198;2023-02-18T02:55:51;1.98;;;1.20;;
20727;SDS011;10525;50.154;8.198;2023-02-18T02:58:19;1.17;;;1.17;;
20727;SDS011;10525;50.154;8.198;2023-02-18T03:00:51;2.13;;;1.38;;
20727;SDS011;10525;50.154;8.198;2023-02-18T03:06:39;1.00;;;1.00;;
20727;SDS011;10525;50.154;8.198;2023-02-18T03:09:19;1.52;;;1.50;;
20727;SDS011;10525;50.154;8.198;2023-02-18T03:11:52;3.78;;;1.27;;
20727;SDS011;10525;50.154;8.198;2023-02-18T03:14:26;1.42;;;1.42;;
20727;SDS011;10525;50.154;8.198;2023-02-18T03:16:57;2.08;;;1.10;;
20727;SDS011;10525;50.154;8.198;2023-02-18T03:19:28;1.05;;;1.05;;
20727;SDS011;10525;50.154;8.198;2023-02-18T03:22:02;1.08;;;1.08;;
20727;SDS011;10525;50.154;8.198;2023-02-18T03:24:32;1.10;;;1.10;;
20727;SDS011;10525;50.154;8.198;2023-02-18T03:27:03;1.20;;;1.05;;
20727;SDS011;10525;50.154;8.198;2023-02-18T03:29:34;1.00;;;1.00;;
20727;SDS011;10525;50.154;8.198;2023-02-18T03:32:03;2.00;;;1.00;;
20727;SDS011;10525;50.154;8.198;2023-02-18T03:34:33;1.10;;;1.10;;
20727;SDS011;10525;50.154;8.198;2023-02-18T03:37:04;1.60;;;1.10;;
20727;SDS011;10525;50.154;8.198;2023-02-18T03:39:32;1.20;;;1.20;;
20727;SDS011;10525;50.154;8.198;2023-02-18T03:42:00;1.05;;;1.02;;
20727;SDS011;10525;50.154;8.198;2023-02-18T03:44:27;1.13;;;1.13;;
20727;SDS011;10525;50.154;8.198;2023-02-18T03:46:56;1.20;;;1.20;;
20727;SDS011;10525;50.154;8.198;2023-02-18T03:49:22;1.30;;;1.30;;
20727;SDS011;10525;50.154;8.198;2023-02-18T03:51:49;1.15;;;1.15;;
20727;SDS011;10525;50.154;8.198;2023-02-18T03:54:17;1.25;;;1.25;;
20727;SDS011;10525;50.154;8.198;2023-02-18T03:56:44;1.23;;;1.23;;
20727;SDS011;10525;50.154;8.198;2023-02-18T03:59:11;1.25;;;1.15;;
20727;SDS011;10525;50.154;8.198;2023-02-18T04:01:38;1.20;;;1.20;;
20727;SDS011;10525;50.154;8.198;2023-02-18T04:04:04;1.27;;;1.27;;
20727;SDS011;10525;50.154;8.198;2023-02-18T04:06:31;1.33;;;1.33;;
20727;SDS011;10525;50.154;8.198;2023-02-18T04:08:58;1.60;;;1.60;;
20727;SDS011;10525;50.154;8.198;2023-02-18T04:11:26;2.85;;;1.40;;
20727;SDS011;10525;50.154;8.198;2023-02-18T04:13:53;1.40;;;1.40;;
20727;SDS011;10525;50.154;8.198;2023-02-18T04:16:19;1.40;;;1.40;;
20727;SDS011;10525;50.154;8.198;2023-02-18T04:18:46;3.60;;;1.15;;
20727;SDS011;10525;50.154;8.198;2023-02-18T04:21:12;1.70;;;1.60;;
20727;SDS011;10525;50.154;8.198;2023-02-18T04:23:39;1.30;;;1.30;;
20727;SDS011;10525;50.154;8.198;2023-02-18T04:26:06;1.77;;;1.70;;
20727;SDS011;10525;50.154;8.198;2023-02-18T04:28:34;2.40;;;1.52;;
20727;SDS011;10525;50.154;8.198;2023-02-18T04:31:00;2.25;;;1.60;;
20727;SDS011;10525;50.154;8.198;2023-02-18T04:33:27;1.40;;;1.40;;
20727;SDS011;10525;50.154;8.198;2023-02-18T04:35:54;1.90;;;1.80;;
20727;SDS011;10525;50.154;8.198;2023-02-18T04:38:20;1.83;;;1.83;;
20727;SDS011;10525;50.154;8.198;2023-02-18T04:40:47;1.83;;;1.73;;
20727;SDS011;10525;50.154;8.198;2023-02-18T04:43:14;1.60;;;1.60;;
20727;SDS011;10525;50.154;8.198;2023-02-18T04:45:42;1.48;;;1.48;;
20727;SDS011;10525;50.154;8.198;2023-02-18T04:48:08;2.00;;;1.90;;
20727;SDS011;10525;50.154;8.198;2023-02-18T04:50:35;1.85;;;1.85;;
20727;SDS011;10525;50.154;8.198;2023-02-18T04:53:02;2.00;;;1.90;;
20727;SDS011;10525;50.154;8.198;2023-02-18T04:55:29;1.70;;;1.67;;
20727;SDS011;10525;50.154;8.198;2023-02-18T04:57:55;2.20;;;1.73;;
20727;SDS011;10525;50.154;8.198;2023-02-18T05:00:22;2.05;;;1.95;;
20727;SDS011;10525;50.154;8.198;2023-02-18T05:02:50;2.17;;;1.73;;
20727;SDS011;10525;50.154;8.198;2023-02-18T05:05:17;1.85;;;1.70;;
20727;SDS011;10525;50.154;8.198;2023-02-18T05:07:43;2.38;;;1.80;;
20727;SDS011;10525;50.154;8.198;2023-02-18T05:10:11;1.90;;;1.90;;
20727;SDS011;10525;50.154;8.198;2023-02-18T05:12:41;1.90;;;1.90;;
20727;SDS011;10525;50.154;8.198;2023-02-18T05:15:08;1.77;;;1.77;;
20727;SDS011;10525;50.154;8.198;2023-02-18T05:17:35;2.08;;;1.98;;
20727;SDS011;10525;50.154;8.198;2023-02-18T05:20:03;1.83;;;1.80;;
20727;SDS011;10525;50.154;8.198;2023-02-18T05:22:31;1.77;;;1.58;;
20727;SDS011;10525;50.154;8.198;2023-02-18T05:24:57;1.80;;;1.70;;
20727;SDS011;10525;50.154;8.198;2023-02-18T05:27:24;1.35;;;1.27;;
20727;SDS011;10525;50.154;8.198;2023-02-18T05:29:51;1.60;;;1.60;;
20727;SDS011;10525;50.154;8.198;2023-02-18T05:32:17;1.77;;;1.67;;
20727;SDS011;10525;50.154;8.198;2023-02-18T05:34:44;1.50;;;1.50;;
20727;SDS011;10525;50.154;8.198;2023-02-18T05:37:12;1.42;;;1.33;;
20727;SDS011;10525;50.154;8.198;2023-02-18T05:39:39;1.60;;;1.60;;
20727;SDS011;10525;50.154;8.198;2023-02-18T05:42:05;1.73;;;1.63;;
20727;SDS011;10525;50.154;8.198;2023-02-18T05:44:32;1.33;;;1.33;;
20727;SDS011;10525;50.154;8.198;2023-02-18T05:47:00;1.42;;;1.42;;
20727;SDS011;10525;50.154;8.198;2023-02-18T05:49:28;2.78;;;1.60;;
20727;SDS011;10525;50.154;8.198;2023-02-18T05:51:57;4.45;;;1.42;;
20727;SDS011;10525;50.154;8.198;2023-02-18T05:54:25;1.70;;;1.70;;
20727;SDS011;10525;50.154;8.198;2023-02-18T05:56:52;1.67;;;1.58;;
20727;SDS011;10525;50.154;8.198;2023-02-18T05:59:19;1.48;;;1.48;;
20727;SDS011;10525;50.154;8.198;2023-02-18T06:01:46;1.60;;;1.60;;
20727;SDS011;10525;50.154;8.198;2023-02-18T06:04:13;1.70;;;1.70;;
20727;SDS011;10525;50.154;8.198;2023-02-18T06:06:40;2.58;;;1.98;;
20727;SDS011;10525;50.154;8.198;2023-02-18T06:09:07;1.92;;;1.83;;
20727;SDS011;10525;50.154;8.198;2023-02-18T06:11:36;1.50;;;1.50;;
20727;SDS011;10525;50.154;8.198;2023-02-18T06:14:03;1.58;;;1.58;;
20727;SDS011;10525;50.154;8.198;2023-02-18T06:16:30;1.90;;;1.90;;
20727;SDS011;10525;50.154;8.198;2023-02-18T06:18:57;2.10;;;2.00;;
20727;SDS011;10525;50.154;8.198;2023-02-18T06:21:24;1.70;;;1.70;;
20727;SDS011;10525;50.154;8.198;2023-02-18T06:23:51;1.80;;;1.80;;
20727;SDS011;10525;50.154;8.198;2023-02-18T06:26:18;2.13;;;2.03;;
20727;SDS011;10525;50.154;8.198;2023-02-18T06:28:46;1.88;;;1.88;;
20727;SDS011;10525;50.154;8.198;2023-02-18T06:31:13;2.25;;;2.25;;
20727;SDS011;10525;50.154;8.198;2023-02-18T06:33:39;5.30;;;2.00;;
20727;SDS011;10525;50.154;8.198;2023-02-18T06:36:07;2.55;;;2.45;;
20727;SDS011;10525;50.154;8.198;2023-02-18T06:38:35;4.00;;;2.15;;
20727;SDS011;10525;50.154;8.198;2023-02-18T06:41:03;2.40;;;2.28;;
20727;SDS011;10525;50.154;8.198;2023-02-18T06:43:30;5.18;;;2.78;;
20727;SDS011;10525;50.154;8.198;2023-02-18T06:45:58;2.22;;;2.13;;
20727;SDS011;10525;50.154;8.198;2023-02-18T06:48:25;2.30;;;2.20;;
20727;SDS011;10525;50.154;8.198;2023-02-18T06:50:51;2.03;;;1.95;;
20727;SDS011;10525;50.154;8.198;2023-02-18T06:53:19;2.22;;;2.13;;
20727;SDS011;10525;50.154;8.198;2023-02-18T06:55:45;2.17;;;2.13;;
20727;SDS011;10525;50.154;8.198;2023-02-18T06:58:13;1.85;;;1.75;;
20727;SDS011;10525;50.154;8.198;2023-02-18T07:00:40;1.73;;;1.73;;
20727;SDS011;10525;50.154;8.198;2023-02-18T07:03:09;1.85;;;1.75;;
20727;SDS011;10525;50.154;8.198;2023-02-18T07:05:37;1.88;;;1.77;;
20727;SDS011;10525;50.154;8.198;2023-02-18T07:08:04;1.92;;;1.83;;
20727;SDS011;10525;50.154;8.198;2023-02-18T07:10:30;2.60;;;1.70;;
20727;SDS011;10525;50.154;8.198;2023-02-18T07:12:57;1.80;;;1.70;;
20727;SDS011;10525;50.154;8.198;2023-02-18T07:15:24;1.75;;;1.75;;
20727;SDS011;10525;50.154;8.198;2023-02-18T07:17:51;1.88;;;1.88;;
20727;SDS011;10525;50.154;8.198;2023-02-18T07:20:20;1.85;;;1.75;;
20727;SDS011;10525;50.154;8.198;2023-02-18T07:22:48;1.88;;;1.88;;
20727;SDS011;10525;50.154;8.198;2023-02-18T07:25:14;1.52;;;1.52;;
20727;SDS011;10525;50.154;8.198;2023-02-18T07:27:41;2.65;;;2.05;;
20727;SDS011;10525;50.154;8.198;2023-02-18T07:30:08;1.80;;;1.70;;
20727;SDS011;10525;50.154;8.198;2023-02-18T07:32:35;2.65;;;2.53;;
20727;SDS011;10525;50.154;8.198;2023-02-18T07:35:02;2.75;;;2.30;;
20727;SDS011;10525;50.154;8.198;2023-02-18T07:37:30;1.77;;;1.73;;
20727;SDS011;10525;50.154;8.198;2023-02-18T07:39:57;3.47;;;1.70;;
20727;SDS011;10525;50.154;8.198;2023-02-18T07:42:24;1.55;;;1.55;;
20727;SDS011;10525;50.154;8.198;2023-02-18T07:44:50;2.13;;;1.98;;
20727;SDS011;10525;50.154;8.198;2023-02-18T07:47:17;4.63;;;2.80;;
20727;SDS011;10525;50.154;8.198;2023-02-18T07:49:44;2.03;;;1.92;;
20727;SDS011;10525;50.154;8.198;2023-02-18T07:52:11;2.53;;;2.03;;
20727;SDS011;10525;50.154;8.198;2023-02-18T07:54:39;1.80;;;1.70;;
20727;SDS011;10525;50.154;8.198;2023-02-18T07:57:05;3.08;;;2.20;;
20727;SDS011;10525;50.154;8.198;2023-02-18T07:59:32;2.83;;;2.67;;
20727;SDS011;10525;50.154;8.198;2023-02-18T08:01:59;2.17;;;2.08;;
20727;SDS011;10525;50.154;8.198;2023-02-18T08:04:25;2.20;;;2.10;;
20727;SDS011;10525;50.154;8.198;2023-02-18T08:06:52;2.55;;;2.45;;
20727;SDS011;10525;50.154;8.198;2023-02-18T08:09:19;2.58;;;2.38;;
20727;SDS011;10525;50.154;8.198;2023-02-18T08:11:47;2.05;;;1.95;;
20727;SDS011;10525;50.154;8.198;2023-02-18T08:14:13;3.75;;;2.25;;
20727;SDS011;10525;50.154;8.198;2023-02-18T08:16:40;3.63;;;2.28;;
20727;SDS011;10525;50.154;8.198;2023-02-18T08:19:07;5.25;;;3.65;;
20727;SDS011;10525;50.154;8.198;2023-02-18T08:21:34;3.13;;;2.90;;
20727;SDS011;10525;50.154;8.198;2023-02-18T08:24:01;4.07;;;3.15;;
20727;SDS011;10525;50.154;8.198;2023-02-18T08:26:27;2.50;;;2.30;;
20727;SDS011;10525;50.154;8.198;2023-02-18T08:28:56;2.45;;;2.35;;
20727;SDS011;10525;50.154;8.198;2023-02-18T08:31:23;2.58;;;2.40;;
20727;SDS011;10525;50.154;8.198;2023-02-18T08:33:51;2.35;;;2.25;;
20727;SDS011;10525;50.154;8.198;2023-02-18T08:36:19;1.95;;;1.85;;
20727;SDS011;10525;50.154;8.198;2023-02-18T08:38:46;2.30;;;2.00;;
20727;SDS011;10525;50.154;8.198;2023-02-18T08:41:13;1.77;;;1.77;;
20727;SDS011;10525;50.154;8.198;2023-02-18T08:43:40;1.88;;;1.88;;
20727;SDS011;10525;50.154;8.198;2023-02-18T08:46:08;3.30;;;1.80;;
20727;SDS011;10525;50.154;8.198;2023-02-18T08:48:35;1.92;;;1.90;;
20727;SDS011;10525;50.154;8.198;2023-02-18T08:51:09;2.42;;;2.25;;
20727;SDS011;10525;50.154;8.198;2023-02-18T08:53:40;2.70;;;2.50;;
20727;SDS011;10525;50.154;8.198;2023-02-18T08:56:07;1.77;;;1.77;;
20727;SDS011;10525;50.154;8.198;2023-02-18T08:58:34;1.83;;;1.73;;
20727;SDS011;10525;50.154;8.198;2023-02-18T09:01:02;1.80;;;1.80;;
20727;SDS011;10525;50.154;8.198;2023-02-18T09:03:32;1.38;;;1.38;;
20727;SDS011;10525;50.154;8.198;2023-02-18T09:05:59;1.60;;;1.60;;
20727;SDS011;10525;50.154;8.198;2023-02-18T09:08:26;4.07;;;1.75;;
20727;SDS011;10525;50.154;8.198;2023-02-18T09:10:54;1.67;;;1.58;;
20727;SDS011;10525;50.154;8.198;2023-02-18T09:13:21;1.30;;;1.30;;
20727;SDS011;10525;50.154;8.198;2023-02-18T09:15:54;1.50;;;1.50;;
20727;SDS011;10525;50.154;8.198;2023-02-18T09:18:22;1.40;;;1.40;;
20727;SDS011;10525;50.154;8.198;2023-02-18T09:20:50;1.45;;;1.45;;
20727;SDS011;10525;50.154;8.198;2023-02-18T09:23:16;1.73;;;1.30;;
20727;SDS011;10525;50.154;8.198;2023-02-18T09:25:45;1.55;;;1.45;;
20727;SDS011;10525;50.154;8.198;2023-02-18T09:28:11;1.30;;;1.30;;
20727;SDS011;10525;50.154;8.198;2023-02-18T09:30:38;1.25;;;1.25;;
20727;SDS011;10525;50.154;8.198;2023-02-18T09:33:05;1.40;;;1.40;;
20727;SDS011;10525;50.154;8.198;2023-02-18T09:35:31;1.80;;;1.80;;
20727;SDS011;10525;50.154;8.198;2023-02-18T09:37:59;1.40;;;1.40;;
20727;SDS011;10525;50.154;8.198;2023-02-18T09:40:27;1.20;;;1.20;;
20727;SDS011;10525;50.154;8.198;2023-02-18T09:42:56;1.40;;;1.40;;
20727;SDS011;10525;50.154;8.198;2023-02-18T09:45:23;1.20;;;1.20;;
20727;SDS011;10525;50.154;8.198;2023-02-18T09:47:51;1.20;;;1.20;;
20727;SDS011;10525;50.154;8.198;2023-02-18T09:50:19;1.58;;;1.40;;
20727;SDS011;10525;50.154;8.198;2023-02-18T09:52:48;1.50;;;1.50;;
20727;SDS011;10525;50.154;8.198;2023-02-18T09:55:18;1.65;;;1.27;;
20727;SDS011;10525;50.154;8.198;2023-02-18T09:57:47;1.10;;;1.10;;
20727;SDS011;10525;50.154;8.198;2023-02-18T10:00:18;1.20;;;1.20;;
20727;SDS011;10525;50.154;8.198;2023-02-18T10:02:49;6.43;;;1.45;;
20727;SDS011;10525;50.154;8.198;2023-02-18T10:05:20;1.40;;;1.40;;
20727;SDS011;10525;50.154;8.198;2023-02-18T10:07:50;1.00;;;1.00;;
20727;SDS011;10525;50.154;8.198;2023-02-18T10:10:23;1.23;;;1.23;;
20727;SDS011;10525;50.154;8.198;2023-02-18T10:12:56;1.45;;;1.45;;
20727;SDS011;10525;50.154;8.198;2023-02-18T10:15:26;1.42;;;1.00;;
20727;SDS011;10525;50.154;8.198;2023-02-18T10:17:54;1.08;;;1.08;;
20727;SDS011;10525;50.154;8.198;2023-02-18T10:20:23;1.00;;;1.00;;
20727;SDS011;10525;50.154;8.198;2023-02-18T10:22:51;0.93;;;0.93;;
20727;SDS011;10525;50.154;8.198;2023-02-18T10:25:22;0.70;;;0.70;;
20727;SDS011;10525;50.154;8.198;2023-02-18T10:27:50;0.85;;;0.85;;
20727;SDS011;10525;50.154;8.198;2023-02-18T10:30:22;1.00;;;1.00;;
20727;SDS011;10525;50.154;8.198;2023-02-18T10:32:54;1.65;;;1.15;;
20727;SDS011;10525;50.154;8.198;2023-02-18T10:35:27;1.00;;;1.00;;
20727;SDS011;10525;50.154;8.198;2023-02-18T10:38:01;0.70;;;0.70;;
20727;SDS011;10525;50.154;8.198;2023-02-18T10:40:38;1.02;;;0.80;;
20727;SDS011;10525;50.154;8.198;2023-02-18T10:43:16;3.15;;;1.30;;
20727;SDS011;10525;50.154;8.198;2023-02-18T10:45:51;1.23;;;1.23;;
20727;SDS011;10525;50.154;8.198;2023-02-18T10:48:35;1.33;;;1.33;;
20727;SDS011;10525;50.154;8.198;2023-02-18T10:51:11;1.05;;;1.05;;
20727;SDS011;10525;50.154;8.198;2023-02-18T10:53:42;1.13;;;1.13;;
20727;SDS011;10525;50.154;8.198;2023-02-18T10:56:16;1.55;;;0.88;;
20727;SDS011;10525;50.154;8.198;2023-02-18T10:58:59;2.10;;;1.50;;
20727;SDS011;10525;50.154;8.198;2023-02-18T11:01:30;1.40;;;1.30;;
20727;SDS011;10525;50.154;8.198;2023-02-18T11:04:03;3.33;;;1.45;;
20727;SDS011;10525;50.154;8.198;2023-02-18T11:06:36;1.80;;;1.50;;
20727;SDS011;10525;50.154;8.198;2023-02-18T11:09:04;1.95;;;1.20;;
20727;SDS011;10525;50.154;8.198;2023-02-18T11:11:35;2.17;;;1.30;;
20727;SDS011;10525;50.154;8.198;2023-02-18T11:14:04;1.38;;;1.30;;
20727;SDS011;10525;50.154;8.198;2023-02-18T11:16:36;1.30;;;1.30;;
20727;SDS011;10525;50.154;8.198;2023-02-18T11:19:05;1.40;;;1.40;;
20727;SDS011;10525;50.154;8.198;2023-02-18T11:22:05;1.13;;;1.13;;
20727;SDS011;10525;50.154;8.198;2023-02-18T11:24:35;1.10;;;1.10;;
20727;SDS011;10525;50.154;8.198;2023-02-18T11:27:06;1.02;;;1.02;;
20727;SDS011;10525;50.154;8.198;2023-02-18T11:29:34;3.25;;;1.17;;
20727;SDS011;10525;50.154;8.198;2023-02-18T11:32:01;1.30;;;1.30;;
20727;SDS011;10525;50.154;8.198;2023-02-18T11:34:29;3.08;;;1.85;;
20727;SDS011;10525;50.154;8.198;2023-02-18T11:37:07;2.92;;;1.50;;
20727;SDS011;10525;50.154;8.198;2023-02-18T11:39:36;5.00;;;1.45;;
20727;SDS011;10525;50.154;8.198;2023-02-18T11:42:11;1.30;;;1.27;;
20727;SDS011;10525;50.154;8.198;2023-02-18T11:44:40;4.32;;;1.40;;
20727;SDS011;10525;50.154;8.198;2023-02-18T11:47:20;2.60;;;1.90;;
20727;SDS011;10525;50.154;8.198;2023-02-18T11:50:00;4.28;;;1.63;;
20727;SDS011;10525;50.154;8.198;2023-02-18T11:52:40;2.88;;;1.50;;
20727;SDS011;10525;50.154;8.198;2023-02-18T11:55:13;2.20;;;2.00;;
20727;SDS011;10525;50.154;8.198;2023-02-18T11:57:42;1.52;;;1.50;;
20727;SDS011;10525;50.154;8.198;2023-02-18T12:00:14;3.30;;;1.70;;
20727;SDS011;10525;50.154;8.198;2023-02-18T12:02:46;1.52;;;1.38;;
20727;SDS011;10525;50.154;8.198;2023-02-18T12:05:15;1.52;;;1.42;;
20727;SDS011;10525;50.154;8.198;2023-02-18T12:07:46;1.35;;;1.35;;
20727;SDS011;10525;50.154;8.198;2023-02-18T12:10:17;2.92;;;1.40;;
20727;SDS011;10525;50.154;8.198;2023-02-18T12:12:49;2.58;;;1.45;;
20727;SDS011;10525;50.154;8.198;2023-02-18T12:15:23;1.33;;;1.23;;
20727;SDS011;10525;50.154;8.198;2023-02-18T12:17:58;1.60;;;1.20;;
20727;SDS011;10525;50.154;8.198;2023-02-18T12:20:41;2.25;;;1.70;;
20727;SDS011;10525;50.154;8.198;2023-02-18T12:23:20;3.05;;;1.35;;
20727;SDS011;10525;50.154;8.198;2023-02-18T12:25:59;2.10;;;1.80;;
20727;SDS011;10525;50.154;8.198;2023-02-18T12:28:42;2.30;;;1.42;;
20727;SDS011;10525;50.154;8.198;2023-02-18T12:31:19;1.75;;;1.50;;
20727;SDS011;10525;50.154;8.198;2023-02-18T12:33:58;3.28;;;1.50;;
20727;SDS011;10525;50.154;8.198;2023-02-18T12:36:37;4.75;;;1.40;;
20727;SDS011;10525;50.154;8.198;2023-02-18T12:39:16;1.60;;;1.60;;
20727;SDS011;10525;50.154;8.198;2023-02-18T12:44:46;1.20;;;1.20;;
20727;SDS011;10525;50.154;8.198;2023-02-18T12:47:29;1.48;;;1.38;;
20727;SDS011;10525;50.154;8.198;2023-02-18T12:50:02;7.78;;;1.92;;
20727;SDS011;10525;50.154;8.198;2023-02-18T12:52:46;1.38;;;1.38;;
20727;SDS011;10525;50.154;8.198;2023-02-18T12:55:30;1.45;;;1.30;;
20727;SDS011;10525;50.154;8.198;2023-02-18T12:58:12;1.83;;;1.35;;
20727;SDS011;10525;50.154;8.198;2023-02-18T13:01:07;1.75;;;1.75;;
20727;SDS011;10525;50.154;8.198;2023-02-18T13:03:53;2.65;;;2.10;;
20727;SDS011;10525;50.154;8.198;2023-02-18T13:06:46;3.95;;;2.80;;
20727;SDS011;10525;50.154;8.198;2023-02-18T13:09:27;3.05;;;2.75;;
20727;SDS011;10525;50.154;8.198;2023-02-18T13:12:05;2.95;;;2.08;;
20727;SDS011;10525;50.154;8.198;2023-02-18T13:14:38;2.45;;;2.00;;
20727;SDS011;10525;50.154;8.198;2023-02-18T13:17:10;1.90;;;1.80;;
20727;SDS011;10525;50.154;8.198;2023-02-18T13:19:40;3.03;;;1.92;;
20727;SDS011;10525;50.154;8.198;2023-02-18T13:22:13;1.70;;;1.60;;
20727;SDS011;10525;50.154;8.198;2023-02-18T13:24:43;2.30;;;2.22;;
20727;SDS011;10525;50.154;8.198;2023-02-18T13:27:15;3.88;;;2.00;;
20727;SDS011;10525;50.154;8.198;2023-02-18T13:29:47;4.35;;;1.85;;
20727;SDS011;10525;50.154;8.198;2023-02-18T13:32:22;2.00;;;1.77;;
20727;SDS011;10525;50.154;8.198;2023-02-18T13:34:56;2.22;;;2.13;;
20727;SDS011;10525;50.154;8.198;2023-02-18T13:37:29;12.13;;;1.85;;
20727;SDS011;10525;50.154;8.198;2023-02-18T13:40:02;2.42;;;2.22;;
20727;SDS011;10525;50.154;8.198;2023-02-18T13:42:33;4.15;;;1.70;;
20727;SDS011;10525;50.154;8.198;2023-02-18T13:45:03;2.03;;;1.85;;
20727;SDS011;10525;50.154;8.198;2023-02-18T13:47:55;1.85;;;1.75;;
20727;SDS011;10525;50.154;8.198;2023-02-18T13:50:38;2.10;;;1.95;;
20727;SDS011;10525;50.154;8.198;2023-02-18T13:53:12;2.42;;;2.13;;
20727;SDS011;10525;50.154;8.198;2023-02-18T13:55:51;3.17;;;1.98;;
20727;SDS011;10525;50.154;8.198;2023-02-18T13:58:28;4.70;;;1.98;;
20727;SDS011;10525;50.154;8.198;2023-02-18T14:01:00;1.65;;;1.65;;
20727;SDS011;10525;50.154;8.198;2023-02-18T14:03:31;4.10;;;2.35;;
20727;SDS011;10525;50.154;8.198;2023-02-18T14:06:06;2.78;;;2.00;;
20727;SDS011;10525;50.154;8.198;2023-02-18T14:08:39;2.63;;;2.25;;
20727;SDS011;10525;50.154;8.198;2023-02-18T14:11:23;2.60;;;2.10;;
20727;SDS011;10525;50.154;8.198;2023-02-18T14:14:28;3.15;;;1.90;;
20727;SDS011;10525;50.154;8.198;2023-02-18T14:23:10;3.08;;;2.15;;
20727;SDS011;10525;50.154;8.198;2023-02-18T14:26:04;2.55;;;2.00;;
20727;SDS011;10525;50.154;8.198;2023-02-18T14:28:35;2.85;;;2.10;;
20727;SDS011;10525;50.154;8.198;2023-02-18T14:31:05;2.10;;;1.90;;
20727;SDS011;10525;50.154;8.198;2023-02-18T14:33:49;2.47;;;1.95;;
20727;SDS011;10525;50.154;8.198;2023-02-18T14:36:32;2.83;;;2.13;;
20727;SDS011;10525;50.154;8.198;2023-02-18T14:39:05;2.15;;;1.83;;
20727;SDS011;10525;50.154;8.198;2023-02-18T14:41:41;2.20;;;2.10;;
20727;SDS011;10525;50.154;8.198;2023-02-18T14:44:24;5.07;;;1.90;;
20727;SDS011;10525;50.154;8.198;2023-02-18T14:47:14;2.15;;;1.95;;
20727;SDS011;10525;50.154;8.198;2023-02-18T14:49:49;2.03;;;1.92;;
20727;SDS011;10525;50.154;8.198;2023-02-18T14:52:22;1.75;;;1.65;;
20727;SDS011;10525;50.154;8.198;2023-02-18T14:54:55;1.98;;;1.88;;
20727;SDS011;10525;50.154;8.198;2023-02-18T14:57:28;2.15;;;2.00;;
20727;SDS011;10525;50.154;8.198;2023-02-18T14:59:59;1.83;;;1.70;;
20727;SDS011;10525;50.154;8.198;2023-02-18T15:02:26;1.73;;;1.63;;
20727;SDS011;10525;50.154;8.198;2023-02-18T15:05:04;1.60;;;1.50;;
20727;SDS011;10525;50.154;8.198;2023-02-18T15:07:37;2.05;;;1.58;;
20727;SDS011;10525;50.154;8.198;2023-02-18T15:10:04;2.83;;;1.42;;
20727;SDS011;10525;50.154;8.198;2023-02-18T15:12:39;1.70;;;1.70;;
20727;SDS011;10525;50.154;8.198;2023-02-18T15:15:08;2.13;;;1.60;;
20727;SDS011;10525;50.154;8.198;2023-02-18T15:17:38;2.17;;;1.40;;
20727;SDS011;10525;50.154;8.198;2023-02-18T15:20:11;3.38;;;1.50;;
20727;SDS011;10525;50.154;8.198;2023-02-18T15:22:38;1.52;;;1.50;;
20727;SDS011;10525;50.154;8.198;2023-02-18T15:25:08;2.05;;;1.70;;